createdAt,value
2022-11-27T00:02:25.005Z,0.90
2022-11-27T00:04:56.461Z,0.95
2022-11-27T00:07:27.994Z,0.93
2022-11-27T00:09:59.450Z,1.00
2022-11-27T00:12:30.932Z,1.20
2022-11-27T00:15:02.630Z,0.90
2022-11-27T00:17:33.970Z,1.10
2022-11-27T00:20:05.978Z,1.02
2022-11-27T00:22:38.464Z,1.08
2022-11-27T00:25:10.296Z,1.20
2022-11-27T00:27:41.652Z,0.93
2022-11-27T00:30:13.634Z,0.98
2022-11-27T00:35:15.633Z,0.90
2022-11-27T00:37:46.983Z,0.80
2022-11-27T00:40:18.733Z,1.40
2022-11-27T00:42:50.635Z,1.00
2022-11-27T00:45:22.014Z,1.20
2022-11-27T00:47:53.362Z,1.20
2022-11-27T00:50:25.088Z,1.20
2022-11-27T00:52:56.636Z,1.00
2022-11-27T00:55:28.397Z,1.13
2022-11-27T00:58:00.111Z,1.67
2022-11-27T01:03:02.620Z,1.35
2022-11-27T01:05:33.987Z,1.38
2022-11-27T01:08:06.753Z,1.30
2022-11-27T01:10:38.038Z,1.00
2022-11-27T01:13:09.315Z,0.90
2022-11-27T01:15:40.924Z,1.02
2022-11-27T01:18:12.405Z,1.10
2022-11-27T01:20:43.752Z,1.10
2022-11-27T01:23:15.094Z,1.35
2022-11-27T01:25:46.648Z,1.00
2022-11-27T01:28:19.203Z,1.33
2022-11-27T01:30:51.017Z,1.13
2022-11-27T01:33:22.713Z,1.10
2022-11-27T01:35:58.985Z,1.25
2022-11-27T01:38:34.396Z,1.00
2022-11-27T01:41:09.303Z,0.90
2022-11-27T01:43:53.776Z,0.80
2022-11-27T01:46:41.286Z,1.05
2022-11-27T01:49:21.130Z,1.25
2022-11-27T01:51:59.725Z,1.02
2022-11-27T01:54:36.824Z,0.90
2022-11-27T01:57:14.350Z,0.90
2022-11-27T01:59:48.296Z,0.90
2022-11-27T02:02:19.860Z,0.82
2022-11-27T02:04:51.906Z,1.10
2022-11-27T02:07:24.205Z,0.90
2022-11-27T02:09:56.153Z,1.10
2022-11-27T02:12:38.324Z,0.63
2022-11-27T02:18:24.484Z,1.10
2022-11-27T02:21:26.755Z,0.90
2022-11-27T02:24:04.086Z,0.93
2022-11-27T02:27:07.442Z,0.80
2022-11-27T02:29:40.690Z,1.10
2022-11-27T02:32:26.733Z,0.88
2022-11-27T02:35:11.467Z,0.90
2022-11-27T02:37:48.862Z,1.15
2022-11-27T02:40:27.775Z,1.10
2022-11-27T02:43:09.423Z,0.90
2022-11-27T02:45:48.394Z,0.95
2022-11-27T02:48:25.287Z,1.20
2022-11-27T02:50:57.994Z,1.15
2022-11-27T02:53:37.044Z,0.90
2022-11-27T02:56:13.193Z,1.02
2022-11-27T02:58:45.104Z,1.40
2022-11-27T03:01:20.241Z,0.90
2022-11-27T03:03:57.467Z,0.85
2022-11-27T03:06:38.547Z,1.10
2022-11-27T03:09:15.645Z,0.82
2022-11-27T03:11:47.986Z,1.05
2022-11-27T03:14:22.014Z,1.33
2022-11-27T03:17:08.008Z,1.08
2022-11-27T03:19:59.881Z,1.10
2022-11-27T03:25:04.486Z,1.25
2022-11-27T03:27:43.032Z,1.20
2022-11-27T03:30:15.944Z,1.23
2022-11-27T03:32:47.587Z,0.85
2022-11-27T03:35:23.903Z,0.75
2022-11-27T03:37:56.776Z,0.90
2022-11-27T03:40:39.041Z,1.10
2022-11-27T03:43:21.336Z,0.73
2022-11-27T03:46:30.550Z,0.90
2022-11-27T03:49:10.908Z,0.80
2022-11-27T03:51:57.755Z,0.95
2022-11-27T03:54:41.458Z,0.95
2022-11-27T03:57:24.203Z,0.70
2022-11-27T03:59:58.807Z,0.85
2022-11-27T04:02:35.470Z,0.90
2022-11-27T04:05:07.385Z,0.70
2022-11-27T04:07:39.057Z,0.65
2022-11-27T04:10:12.670Z,0.60
2022-11-27T04:12:44.497Z,0.63
2022-11-27T04:15:16.814Z,0.98
2022-11-27T04:17:48.199Z,0.50
2022-11-27T04:20:19.534Z,0.95
2022-11-27T04:22:50.997Z,0.90
2022-11-27T04:25:23.957Z,0.90
2022-11-27T04:27:55.416Z,0.70
2022-11-27T04:30:26.914Z,0.90
2022-11-27T04:32:58.268Z,0.60
2022-11-27T04:35:29.672Z,0.70
2022-11-27T04:38:01.817Z,1.25
2022-11-27T04:43:03.829Z,0.63
2022-11-27T04:45:35.438Z,0.85
2022-11-27T04:50:38.176Z,0.82
2022-11-27T04:53:10.135Z,0.60
2022-11-27T04:58:12.685Z,0.85
2022-11-27T05:00:44.146Z,0.80
2022-11-27T05:03:15.627Z,1.00
2022-11-27T05:05:47.043Z,0.80
2022-11-27T05:08:18.547Z,0.70
2022-11-27T05:11:01.747Z,0.60
2022-11-27T05:13:33.569Z,0.73
2022-11-27T05:16:06.209Z,0.73
2022-11-27T05:18:38.157Z,0.68
2022-11-27T05:21:11.133Z,0.73
2022-11-27T05:23:42.423Z,0.68
2022-11-27T05:26:14.789Z,0.70
2022-11-27T05:28:46.255Z,0.82
2022-11-27T05:31:18.207Z,0.80
2022-11-27T05:33:49.676Z,0.73
2022-11-27T05:36:21.779Z,0.90
2022-11-27T05:38:53.123Z,0.70
2022-11-27T05:41:25.330Z,0.50
2022-11-27T05:43:57.239Z,0.80
2022-11-27T05:46:28.775Z,0.68
2022-11-27T05:49:00.479Z,0.80
2022-11-27T05:51:31.829Z,0.70
2022-11-27T05:54:03.606Z,0.85
2022-11-27T05:56:35.460Z,0.68
2022-11-27T05:59:06.879Z,0.80
2022-11-27T06:01:38.346Z,0.60
2022-11-27T06:04:09.886Z,0.63
2022-11-27T06:06:41.422Z,0.77
2022-11-27T06:09:13.675Z,0.68
2022-11-27T06:14:17.142Z,0.82
2022-11-27T06:16:48.647Z,0.75
2022-11-27T06:19:20.022Z,0.73
2022-11-27T06:21:51.319Z,0.85
2022-11-27T06:24:22.908Z,0.70
2022-11-27T06:26:55.047Z,0.57
2022-11-27T06:29:26.570Z,1.00
2022-11-27T06:34:29.068Z,0.90
2022-11-27T06:37:00.484Z,1.20
2022-11-27T06:39:31.861Z,0.90
2022-11-27T06:42:03.181Z,1.00
2022-11-27T06:44:34.525Z,0.80
2022-11-27T06:47:06.224Z,0.63
2022-11-27T06:49:38.044Z,1.05
2022-11-27T06:52:09.394Z,0.93
2022-11-27T06:54:41.105Z,0.95
2022-11-27T06:57:13.008Z,0.80
2022-11-27T06:59:44.395Z,1.00
2022-11-27T07:02:18.843Z,0.85
2022-11-27T07:04:50.433Z,0.70
2022-11-27T07:09:53.120Z,0.70
2022-11-27T07:12:24.578Z,0.60
2022-11-27T07:14:55.902Z,1.02
2022-11-27T07:17:27.482Z,1.08
2022-11-27T07:19:59.485Z,6.13
2022-11-27T07:22:31.094Z,9.30
2022-11-27T07:25:02.862Z,8.63
2022-11-27T07:27:44.866Z,9.30
2022-11-27T07:30:19.422Z,7.55
2022-11-27T07:32:51.239Z,7.40
2022-11-27T07:35:22.650Z,7.10
2022-11-27T07:37:53.957Z,6.28
2022-11-27T07:40:25.369Z,6.07
2022-11-27T07:42:56.691Z,5.28
2022-11-27T07:45:28.149Z,5.35
2022-11-27T07:47:59.583Z,4.80
2022-11-27T07:50:31.682Z,4.53
2022-11-27T07:53:03.235Z,4.25
2022-11-27T07:55:35.270Z,3.53
2022-11-27T07:58:06.687Z,3.70
2022-11-27T08:00:38.545Z,3.03
2022-11-27T08:05:40.596Z,2.67
2022-11-27T08:08:12.074Z,2.95
2022-11-27T08:10:43.796Z,2.95
2022-11-27T08:15:47.581Z,2.05
2022-11-27T08:18:19.433Z,2.28
2022-11-27T08:20:50.777Z,2.00
2022-11-27T08:23:22.116Z,2.50
2022-11-27T08:25:53.614Z,1.95
2022-11-27T08:28:24.961Z,1.90
2022-11-27T08:31:00.770Z,1.75
2022-11-27T08:33:33.074Z,2.20
2022-11-27T08:36:05.075Z,2.10
2022-11-27T08:38:36.732Z,1.65
2022-11-27T08:41:09.291Z,1.70
2022-11-27T08:43:43.076Z,1.60
2022-11-27T08:46:14.812Z,1.73
2022-11-27T08:48:46.271Z,1.83
2022-11-27T08:51:18.877Z,1.40
2022-11-27T08:53:50.152Z,1.58
2022-11-27T08:56:25.166Z,1.60
2022-11-27T08:58:56.735Z,1.50
2022-11-27T09:04:01.538Z,1.30
2022-11-27T09:06:36.521Z,1.10
2022-11-27T09:09:08.618Z,1.08
2022-11-27T09:11:40.189Z,1.40
2022-11-27T09:14:13.037Z,1.00
2022-11-27T09:16:44.424Z,1.00
2022-11-27T09:19:16.095Z,0.95
2022-11-27T09:21:48.380Z,0.80
2022-11-27T09:24:20.300Z,0.95
2022-11-27T09:26:51.628Z,1.20
2022-11-27T09:29:23.217Z,1.05
2022-11-27T09:31:55.795Z,0.70
2022-11-27T09:34:27.183Z,1.05
2022-11-27T09:36:58.763Z,0.88
2022-11-27T09:39:35.328Z,1.05
2022-11-27T09:42:09.803Z,1.15
2022-11-27T09:44:50.163Z,0.70
2022-11-27T09:47:31.224Z,0.82
2022-11-27T09:50:23.334Z,0.80
2022-11-27T09:53:06.029Z,1.00
2022-11-27T09:58:40.026Z,0.60
2022-11-27T10:01:20.690Z,0.63
2022-11-27T10:03:52.275Z,0.70
2022-11-27T10:06:41.999Z,0.95
2022-11-27T10:09:41.667Z,0.63
2022-11-27T10:12:42.948Z,1.00
2022-11-27T10:15:25.543Z,0.70
2022-11-27T10:18:25.892Z,0.77
2022-11-27T10:21:03.021Z,0.88
2022-11-27T10:23:55.917Z,0.80
2022-11-27T10:26:47.607Z,0.70
2022-11-27T10:29:36.971Z,0.63
2022-11-27T10:32:52.744Z,0.80
2022-11-27T10:35:20.971Z,0.98
2022-11-27T10:38:01.055Z,0.90
2022-11-27T10:41:02.119Z,0.75
2022-11-27T10:43:33.769Z,0.90
2022-11-27T10:46:16.115Z,0.80
2022-11-27T10:48:47.471Z,0.80
2022-11-27T10:51:23.434Z,1.00
2022-11-27T10:53:56.562Z,1.17
2022-11-27T10:56:51.599Z,1.05
2022-11-27T10:59:48.261Z,0.95
2022-11-27T11:02:31.583Z,1.05
2022-11-27T11:05:50.562Z,1.10
2022-11-27T11:08:25.951Z,1.33
2022-11-27T11:11:01.274Z,1.17
2022-11-27T11:13:42.596Z,0.88
2022-11-27T11:16:15.063Z,0.93
2022-11-27T11:18:48.564Z,0.93
2022-11-27T11:21:35.809Z,0.95
2022-11-27T11:24:28.231Z,1.17
2022-11-27T11:27:07.308Z,1.50
2022-11-27T11:29:39.059Z,1.38
2022-11-27T11:32:16.846Z,1.08
2022-11-27T11:35:01.806Z,0.98
2022-11-27T11:37:40.349Z,1.00
2022-11-27T11:40:27.314Z,1.25
2022-11-27T11:43:04.914Z,1.08
2022-11-27T11:45:37.055Z,0.88
2022-11-27T11:48:27.233Z,1.35
2022-11-27T11:51:29.165Z,1.30
2022-11-27T11:54:46.944Z,1.30
2022-11-27T11:57:42.618Z,1.27
2022-11-27T12:00:21.204Z,1.08
2022-11-27T12:03:12.565Z,1.00
2022-11-27T12:06:13.459Z,1.48
2022-11-27T12:08:53.131Z,1.00
2022-11-27T12:11:33.453Z,1.30
2022-11-27T12:14:41.205Z,1.00
2022-11-27T12:17:27.994Z,1.20
2022-11-27T12:20:20.881Z,1.17
2022-11-27T12:23:19.388Z,1.27
2022-11-27T12:26:29.398Z,1.40
2022-11-27T12:29:24.574Z,1.52
2022-11-27T12:32:30.376Z,1.20
2022-11-27T12:35:36.928Z,1.70
2022-11-27T12:38:35.931Z,1.13
2022-11-27T12:41:42.141Z,1.52
2022-11-27T12:44:46.494Z,1.10
2022-11-27T12:47:40.037Z,1.17
2022-11-27T12:50:17.123Z,1.50
2022-11-27T12:53:13.209Z,1.13
2022-11-27T12:55:52.470Z,1.33
2022-11-27T12:58:47.379Z,1.30
2022-11-27T13:01:28.093Z,1.10
2022-11-27T13:04:24.245Z,1.10
2022-11-27T13:07:05.469Z,1.42
2022-11-27T13:10:01.117Z,1.00
2022-11-27T13:12:37.515Z,1.08
2022-11-27T13:15:37.741Z,1.27
2022-11-27T13:18:23.512Z,1.10
2022-11-27T13:20:55.612Z,1.10
2022-11-27T13:23:27.512Z,1.00
2022-11-27T13:26:00.869Z,1.00
2022-11-27T13:28:48.507Z,1.13
2022-11-27T13:31:40.706Z,1.00
2022-11-27T13:34:23.226Z,1.08
2022-11-27T13:37:27.266Z,1.25
2022-11-27T13:40:08.583Z,1.45
2022-11-27T13:42:47.063Z,1.58
2022-11-27T13:45:39.665Z,1.42
2022-11-27T13:48:52.343Z,1.05
2022-11-27T13:51:39.009Z,1.20
2022-11-27T13:54:17.592Z,1.48
2022-11-27T13:56:49.225Z,1.40
2022-11-27T13:59:27.075Z,1.40
2022-11-27T14:02:08.413Z,1.40
2022-11-27T14:04:55.777Z,1.70
2022-11-27T14:08:00.544Z,1.50
2022-11-27T14:10:35.055Z,1.20
2022-11-27T14:13:11.581Z,1.30
2022-11-27T14:15:43.854Z,1.10
2022-11-27T14:18:24.751Z,1.25
2022-11-27T14:21:04.241Z,1.52
2022-11-27T14:24:07.315Z,1.40
2022-11-27T14:26:43.060Z,1.30
2022-11-27T14:29:14.769Z,1.23
2022-11-27T14:31:46.299Z,1.25
2022-11-27T14:34:37.066Z,1.60
2022-11-27T14:37:08.904Z,1.30
2022-11-27T14:39:41.588Z,1.10
2022-11-27T14:42:28.123Z,1.27
2022-11-27T14:45:14.867Z,1.40
2022-11-27T14:47:55.448Z,1.40
2022-11-27T14:50:27.035Z,1.40
2022-11-27T14:53:00.390Z,1.55
2022-11-27T14:55:34.735Z,1.30
2022-11-27T14:58:07.549Z,1.40
2022-11-27T15:00:38.967Z,1.17
2022-11-27T15:03:12.332Z,1.20
2022-11-27T15:05:55.524Z,1.20
2022-11-27T15:08:28.205Z,1.00
2022-11-27T15:11:01.356Z,1.70
2022-11-27T15:13:38.857Z,1.27
2022-11-27T15:16:24.620Z,1.00
2022-11-27T15:19:05.482Z,1.20
2022-11-27T15:21:40.852Z,0.93
2022-11-27T15:24:44.517Z,1.30
2022-11-27T15:27:24.009Z,0.95
2022-11-27T15:29:55.588Z,0.80
2022-11-27T15:32:29.527Z,1.27
2022-11-27T15:35:00.954Z,1.15
2022-11-27T15:37:38.128Z,1.20
2022-11-27T15:40:27.942Z,1.33
2022-11-27T15:42:59.668Z,1.08
2022-11-27T15:45:35.621Z,1.20
2022-11-27T15:48:07.244Z,1.27
2022-11-27T15:50:38.755Z,0.90
2022-11-27T15:53:12.103Z,0.85
2022-11-27T15:55:43.559Z,1.08
2022-11-27T15:58:15.103Z,1.15
2022-11-27T16:00:46.460Z,1.00
2022-11-27T16:03:17.817Z,1.15
2022-11-27T16:05:49.315Z,1.20
2022-11-27T16:08:20.775Z,1.20
2022-11-27T16:10:52.181Z,0.90
2022-11-27T16:13:23.526Z,1.50
2022-11-27T16:15:54.932Z,1.13
2022-11-27T16:18:26.327Z,1.00
2022-11-27T16:20:57.740Z,1.08
2022-11-27T16:23:29.058Z,1.15
2022-11-27T16:26:01.472Z,0.80
2022-11-27T16:31:08.639Z,0.90
2022-11-27T16:33:40.341Z,1.23
2022-11-27T16:36:15.274Z,1.10
2022-11-27T16:38:47.513Z,0.85
2022-11-27T16:41:20.696Z,0.93
2022-11-27T16:43:58.045Z,1.00
2022-11-27T16:46:32.523Z,0.80
2022-11-27T16:49:07.831Z,1.00
2022-11-27T16:51:41.222Z,1.00
2022-11-27T16:54:15.768Z,0.80
2022-11-27T16:56:47.123Z,0.93
2022-11-27T16:59:18.622Z,0.80
2022-11-27T17:01:50.234Z,0.98
2022-11-27T17:04:23.188Z,0.80
2022-11-27T17:06:54.534Z,0.80
2022-11-27T17:09:30.710Z,1.00
2022-11-27T17:12:02.151Z,0.80
2022-11-27T17:14:35.023Z,0.82
2022-11-27T17:17:08.016Z,0.90
2022-11-27T17:19:40.102Z,0.60
2022-11-27T17:22:12.545Z,0.63
2022-11-27T17:24:43.912Z,0.80
2022-11-27T17:27:19.923Z,0.73
2022-11-27T17:29:51.915Z,1.10
2022-11-27T17:32:23.827Z,0.80
2022-11-27T17:34:55.153Z,0.83
2022-11-27T17:37:26.525Z,1.13
2022-11-27T17:39:57.837Z,0.70
2022-11-27T17:42:29.264Z,0.57
2022-11-27T17:45:00.660Z,0.90
2022-11-27T17:47:32.076Z,0.88
2022-11-27T17:50:03.555Z,0.70
2022-11-27T17:52:35.377Z,0.70
2022-11-27T17:57:38.398Z,0.60
2022-11-27T18:00:10.794Z,0.50
2022-11-27T18:02:45.118Z,0.80
2022-11-27T18:05:17.904Z,0.77
2022-11-27T18:10:22.656Z,1.73
2022-11-27T18:12:55.601Z,1.00
2022-11-27T18:15:27.011Z,1.58
2022-11-27T18:17:58.609Z,1.52
2022-11-27T18:20:30.880Z,1.45
2022-11-27T18:23:02.788Z,1.20
2022-11-27T18:25:34.581Z,1.40
2022-11-27T18:28:07.115Z,1.42
2022-11-27T18:30:38.738Z,1.02
2022-11-27T18:33:10.169Z,1.20
2022-11-27T18:35:45.447Z,1.48
2022-11-27T18:38:16.907Z,1.10
2022-11-27T18:40:48.425Z,1.08
2022-11-27T18:43:20.072Z,1.00
2022-11-27T18:45:51.595Z,1.45
2022-11-27T18:48:23.287Z,1.10
2022-11-27T18:50:54.964Z,1.13
2022-11-27T18:53:26.855Z,1.00
2022-11-27T18:56:04.031Z,0.80
2022-11-27T18:58:37.199Z,1.10
2022-11-27T19:01:11.975Z,0.63
2022-11-27T19:03:43.742Z,0.85
2022-11-27T19:06:17.248Z,1.00
2022-11-27T19:08:49.875Z,1.05
2022-11-27T19:11:24.221Z,0.70
2022-11-27T19:13:57.773Z,0.90
2022-11-27T19:16:32.759Z,0.93
2022-11-27T19:19:06.812Z,0.90
2022-11-27T19:21:38.567Z,0.50
2022-11-27T19:24:10.202Z,0.73
2022-11-27T19:26:41.708Z,0.80
2022-11-27T19:29:16.803Z,0.70
2022-11-27T19:31:48.210Z,0.80
2022-11-27T19:34:19.865Z,0.80
2022-11-27T19:36:51.642Z,0.70
2022-11-27T19:39:23.031Z,0.70
2022-11-27T19:41:54.638Z,0.60
2022-11-27T19:44:27.713Z,0.60
2022-11-27T19:46:59.061Z,0.80
2022-11-27T19:49:32.024Z,0.50
2022-11-27T19:52:03.629Z,0.70
2022-11-27T19:54:35.207Z,0.50
2022-11-27T19:57:07.463Z,0.68
2022-11-27T19:59:40.771Z,0.50
2022-11-27T20:02:17.130Z,0.70
2022-11-27T20:04:48.754Z,0.70
2022-11-27T20:07:21.896Z,0.60
2022-11-27T20:09:53.919Z,0.65
2022-11-27T20:12:26.046Z,0.50
2022-11-27T20:14:59.033Z,0.50
2022-11-27T20:17:31.149Z,0.57
2022-11-27T20:20:02.950Z,0.60
2022-11-27T20:22:34.945Z,0.60
2022-11-27T20:27:52.236Z,0.52
2022-11-27T20:30:23.574Z,0.70
2022-11-27T20:32:56.312Z,0.77
2022-11-27T20:35:28.086Z,0.60
2022-11-27T20:37:59.469Z,0.60
2022-11-27T20:40:31.217Z,0.90
2022-11-27T20:43:02.739Z,0.57
2022-11-27T20:45:34.468Z,0.70
2022-11-27T20:48:06.781Z,0.80
2022-11-27T20:50:40.752Z,0.63
2022-11-27T20:53:12.061Z,0.70
2022-11-27T20:55:43.710Z,0.70
2022-11-27T20:58:15.130Z,0.50
2022-11-27T21:00:46.879Z,0.65
2022-11-27T21:03:18.258Z,0.70
2022-11-27T21:05:52.523Z,0.65
2022-11-27T21:08:24.633Z,0.80
2022-11-27T21:13:26.579Z,0.90
2022-11-27T21:15:57.902Z,0.60
2022-11-27T21:18:29.298Z,0.70
2022-11-27T21:21:15.874Z,0.60
2022-11-27T21:23:47.452Z,0.75
2022-11-27T21:26:19.240Z,0.70
2022-11-27T21:28:51.735Z,0.70
2022-11-27T21:31:26.002Z,0.50
2022-11-27T21:33:59.699Z,0.60
2022-11-27T21:36:35.892Z,0.65
2022-11-27T21:39:10.780Z,0.60
2022-11-27T21:41:42.313Z,0.50
2022-11-27T21:44:15.301Z,0.60
2022-11-27T21:46:48.419Z,0.73
2022-11-27T21:49:22.630Z,0.80
2022-11-27T21:51:56.510Z,0.60
2022-11-27T21:54:34.660Z,0.63
2022-11-27T21:57:06.637Z,0.50
2022-11-27T21:59:37.963Z,0.57
2022-11-27T22:02:09.550Z,0.40
2022-11-27T22:04:41.182Z,0.50
2022-11-27T22:07:13.074Z,0.50
2022-11-27T22:12:15.428Z,0.55
2022-11-27T22:14:46.828Z,0.40
2022-11-27T22:17:19.336Z,0.50
2022-11-27T22:19:51.252Z,0.50
2022-11-27T22:22:22.656Z,0.63
2022-11-27T22:24:53.950Z,0.50
2022-11-27T22:27:25.251Z,0.60
2022-11-27T22:29:56.930Z,1.15
2022-11-27T22:34:59.804Z,0.40
2022-11-27T22:37:31.180Z,0.50
2022-11-27T22:40:02.551Z,0.60
2022-11-27T22:42:33.978Z,0.47
2022-11-27T22:45:05.915Z,0.70
2022-11-27T22:47:38.545Z,0.60
2022-11-27T22:50:10.064Z,0.53
2022-11-27T22:52:41.832Z,0.70
2022-11-27T22:55:13.427Z,0.75
2022-11-27T22:57:44.845Z,0.80
2022-11-27T23:00:17.009Z,0.75
2022-11-27T23:02:50.077Z,0.80
2022-11-27T23:05:21.787Z,1.25
2022-11-27T23:07:53.263Z,1.17
2022-11-27T23:12:56.555Z,1.00
2022-11-27T23:15:28.179Z,0.80
2022-11-27T23:18:00.249Z,0.80
2022-11-27T23:20:31.738Z,1.00
2022-11-27T23:23:03.159Z,1.00
2022-11-27T23:25:34.750Z,1.10
2022-11-27T23:28:06.939Z,0.98
2022-11-27T23:33:09.339Z,1.92
2022-11-27T23:35:40.941Z,2.50
2022-11-27T23:38:12.731Z,2.85
2022-11-27T23:40:44.275Z,2.95
2022-11-27T23:43:15.765Z,3.13
2022-11-27T23:45:47.479Z,3.40
2022-11-27T23:48:18.917Z,3.70
2022-11-27T23:50:50.238Z,4.47
2022-11-27T23:53:21.647Z,5.13
2022-11-27T23:55:53.024Z,4.53
2022-11-27T23:58:24.308Z,18.30
